sensor_id;sensor_type;location;lat;lon;timestamp;pressure;altitude;pressure_sealevel;temperature;humidity
61674;BME280;47573;43.832;5.974;2023-06-24T00:02:18;95357.69;;;30.49;56.61
61674;BME280;47573;43.832;5.974;2023-06-24T00:08:59;95361.81;;;30.51;56.68
61674;BME280;47573;43.832;5.974;2023-06-24T00:15:41;95353.56;;;30.46;57.28
61674;BME280;47573;43.832;5.974;2023-06-24T00:22:21;95354.16;;;30.43;57.18
61674;BME280;47573;43.832;5.974;2023-06-24T00:29:02;95352.47;;;30.47;57.96
61674;BME280;47573;43.832;5.974;2023-06-24T00:35:44;95347.25;;;30.46;58.24
61674;BME280;47573;43.832;5.974;2023-06-24T00:42:24;95347.25;;;30.46;58.09
61674;BME280;47573;43.832;5.974;2023-06-24T00:49:05;95341.75;;;30.46;58.41
61674;BME280;47573;43.832;5.974;2023-06-24T00:55:47;95340.06;;;30.50;58.94
61674;BME280;47573;43.832;5.974;2023-06-24T01:02:27;95344.94;;;30.58;59.32
61674;BME280;47573;43.832;5.974;2023-06-24T01:09:08;95328.00;;;30.69;58.79
61674;BME280;47573;43.832;5.974;2023-06-24T01:15:50;95329.34;;;30.72;58.74
61674;BME280;47573;43.832;5.974;2023-06-24T01:22:46;95334.25;;;30.75;58.33
61674;BME280;47573;43.832;5.974;2023-06-24T01:29:52;95344.22;;;30.71;58.30
61674;BME280;47573;43.832;5.974;2023-06-24T01:36:38;95338.50;;;30.67;58.52
61674;BME280;47573;43.832;5.974;2023-06-24T01:43:22;95340.38;;;30.72;58.09
61674;BME280;47573;43.832;5.974;2023-06-24T01:50:05;95335.44;;;30.69;58.06
61674;BME280;47573;43.832;5.974;2023-06-24T01:56:49;95347.06;;;30.66;58.15
61674;BME280;47573;43.832;5.974;2023-06-24T02:03:33;95349.28;;;30.64;57.93
61674;BME280;47573;43.832;5.974;2023-06-24T02:10:14;95342.38;;;30.66;57.99
61674;BME280;47573;43.832;5.974;2023-06-24T02:17:00;95354.78;;;30.64;58.15
61674;BME280;47573;43.832;5.974;2023-06-24T02:23:42;95341.06;;;30.59;58.38
61674;BME280;47573;43.832;5.974;2023-06-24T02:30:24;95342.72;;;30.60;58.31
61674;BME280;47573;43.832;5.974;2023-06-24T02:37:06;95335.28;;;30.60;58.56
61674;BME280;47573;43.832;5.974;2023-06-24T02:43:47;95332.84;;;30.54;58.84
61674;BME280;47573;43.832;5.974;2023-06-24T02:50:28;95330.63;;;30.56;58.70
61674;BME280;47573;43.832;5.974;2023-06-24T02:57:10;95329.56;;;30.52;58.70
61674;BME280;47573;43.832;5.974;2023-06-24T03:03:51;95327.34;;;30.54;58.89
61674;BME280;47573;43.832;5.974;2023-06-24T03:10:33;95328.75;;;30.51;59.42
61674;BME280;47573;43.832;5.974;2023-06-24T03:17:17;95328.75;;;30.51;59.44
61674;BME280;47573;43.832;5.974;2023-06-24T03:23:58;95330.66;;;30.51;59.32
61674;BME280;47573;43.832;5.974;2023-06-24T03:30:38;95337.88;;;30.47;59.55
61674;BME280;47573;43.832;5.974;2023-06-24T03:37:20;95335.66;;;30.49;59.42
61674;BME280;47573;43.832;5.974;2023-06-24T03:44:00;95340.63;;;30.47;59.50
61674;BME280;47573;43.832;5.974;2023-06-24T03:50:41;95346.72;;;30.44;59.79
61674;BME280;47573;43.832;5.974;2023-06-24T03:57:23;95347.25;;;30.46;59.50
61674;BME280;47573;43.832;5.974;2023-06-24T04:04:04;95348.94;;;30.42;59.53
61674;BME280;47573;43.832;5.974;2023-06-24T04:10:44;95343.41;;;30.42;59.26
61674;BME280;47573;43.832;5.974;2023-06-24T04:17:26;95336.25;;;30.07;51.74
61674;BME280;47573;43.832;5.974;2023-06-24T04:24:06;95330.22;;;29.61;48.44
61674;BME280;47573;43.832;5.974;2023-06-24T04:30:47;95330.06;;;29.42;48.61
61674;BME280;47573;43.832;5.974;2023-06-24T04:37:29;95348.28;;;29.33;48.22
61674;BME280;47573;43.832;5.974;2023-06-24T04:44:09;95348.53;;;29.32;48.91
61674;BME280;47573;43.832;5.974;2023-06-24T04:50:50;95343.09;;;29.22;47.33
61674;BME280;47573;43.832;5.974;2023-06-24T04:57:32;95346.97;;;29.21;47.63
61674;BME280;47573;43.832;5.974;2023-06-24T05:04:13;95353.06;;;28.98;47.84
61674;BME280;47573;43.832;5.974;2023-06-24T05:10:53;95360.16;;;29.14;47.79
61674;BME280;47573;43.832;5.974;2023-06-24T05:17:35;95357.44;;;28.99;47.93
61674;BME280;47573;43.832;5.974;2023-06-24T05:24:15;95362.41;;;28.97;48.13
61674;BME280;47573;43.832;5.974;2023-06-24T05:30:57;95366.84;;;28.83;48.33
61674;BME280;47573;43.832;5.974;2023-06-24T05:37:38;95378.94;;;28.87;48.79
61674;BME280;47573;43.832;5.974;2023-06-24T05:44:20;95383.88;;;28.90;49.19
61674;BME280;47573;43.832;5.974;2023-06-24T05:51:00;95386.34;;;28.91;48.25
61674;BME280;47573;43.832;5.974;2023-06-24T05:57:42;95397.06;;;28.98;48.64
61674;BME280;47573;43.832;5.974;2023-06-24T06:04:23;95408.31;;;29.01;48.65
61674;BME280;47573;43.832;5.974;2023-06-24T06:11:03;95418.47;;;29.01;48.44
61674;BME280;47573;43.832;5.974;2023-06-24T06:17:45;95426.13;;;29.09;48.38
61674;BME280;47573;43.832;5.974;2023-06-24T06:24:25;95420.94;;;29.17;48.16
61674;BME280;47573;43.832;5.974;2023-06-24T06:31:06;95429.97;;;29.13;48.02
61674;BME280;47573;43.832;5.974;2023-06-24T06:37:48;95432.19;;;29.26;48.01
61674;BME280;47573;43.832;5.974;2023-06-24T06:44:28;95448.72;;;29.21;47.87
61674;BME280;47573;43.832;5.974;2023-06-24T06:51:09;95445.38;;;29.24;48.58
61674;BME280;47573;43.832;5.974;2023-06-24T06:57:50;95461.31;;;29.37;50.13
61674;BME280;47573;43.832;5.974;2023-06-24T07:04:31;95466.78;;;29.47;49.90
61674;BME280;47573;43.832;5.974;2023-06-24T07:11:11;95463.44;;;29.60;51.03
61674;BME280;47573;43.832;5.974;2023-06-24T07:17:53;95465.06;;;29.66;51.10
61674;BME280;47573;43.832;5.974;2023-06-24T07:24:34;95469.41;;;29.77;51.32
61674;BME280;47573;43.832;5.974;2023-06-24T07:31:14;95474.38;;;29.75;51.93
61674;BME280;47573;43.832;5.974;2023-06-24T07:37:56;95467.13;;;29.94;52.13
61674;BME280;47573;43.832;5.974;2023-06-24T07:44:36;95471.47;;;30.05;52.24
61674;BME280;47573;43.832;5.974;2023-06-24T07:51:17;95465.44;;;30.03;52.53
61674;BME280;47573;43.832;5.974;2023-06-24T07:57:59;95453.25;;;30.14;52.01
61674;BME280;47573;43.832;5.974;2023-06-24T08:04:39;95453.53;;;30.13;52.65
61674;BME280;47573;43.832;5.974;2023-06-24T08:11:20;95452.66;;;30.23;52.39
61674;BME280;47573;43.832;5.974;2023-06-24T08:18:02;95460.34;;;30.26;52.64
61674;BME280;47573;43.832;5.974;2023-06-24T08:24:42;95466.91;;;30.35;52.63
61674;BME280;47573;43.832;5.974;2023-06-24T08:31:23;95467.41;;;30.42;52.35
61674;BME280;47573;43.832;5.974;2023-06-24T08:38:04;95471.78;;;30.48;52.63
61674;BME280;47573;43.832;5.974;2023-06-24T08:44:45;95468.75;;;30.49;52.70
61674;BME280;47573;43.832;5.974;2023-06-24T08:51:27;95481.06;;;30.57;52.83
61674;BME280;47573;43.832;5.974;2023-06-24T08:58:11;95463.38;;;30.63;52.93
61674;BME280;47573;43.832;5.974;2023-06-24T09:04:51;95480.72;;;30.68;52.58
61674;BME280;47573;43.832;5.974;2023-06-24T09:11:31;95480.94;;;30.77;52.56
61674;BME280;47573;43.832;5.974;2023-06-24T09:18:13;95483.13;;;30.75;53.16
61674;BME280;47573;43.832;5.974;2023-06-24T09:24:54;95479.28;;;30.76;53.24
61674;BME280;47573;43.832;5.974;2023-06-24T09:31:34;95482.53;;;30.83;53.51
61674;BME280;47573;43.832;5.974;2023-06-24T09:38:32;95480.03;;;30.86;53.33
61674;BME280;47573;43.832;5.974;2023-06-24T09:45:12;95479.13;;;30.96;53.52
61674;BME280;47573;43.832;5.974;2023-06-24T09:51:56;95470.31;;;30.94;53.64
61674;BME280;47573;43.832;5.974;2023-06-24T09:58:38;95472.50;;;30.97;53.52
61674;BME280;47573;43.832;5.974;2023-06-24T10:05:21;95471.38;;;30.98;53.81
61674;BME280;47573;43.832;5.974;2023-06-24T10:12:01;95472.44;;;31.02;53.45
61674;BME280;47573;43.832;5.974;2023-06-24T10:18:44;95471.88;;;31.05;53.99
61674;BME280;47573;43.832;5.974;2023-06-24T10:25:35;95471.31;;;31.08;53.97
61674;BME280;47573;43.832;5.974;2023-06-24T10:32:18;95464.63;;;31.14;53.99
61674;BME280;47573;43.832;5.974;2023-06-24T10:39:00;95459.97;;;31.10;54.68
61674;BME280;47573;43.832;5.974;2023-06-24T10:45:48;95461.78;;;31.19;54.19
61674;BME280;47573;43.832;5.974;2023-06-24T10:52:29;95462.31;;;31.21;54.84
61674;BME280;47573;43.832;5.974;2023-06-24T10:59:11;95454.00;;;31.26;54.73
61674;BME280;47573;43.832;5.974;2023-06-24T11:05:51;95453.16;;;31.26;54.79
61674;BME280;47573;43.832;5.974;2023-06-24T11:12:33;95446.38;;;31.18;54.87
61674;BME280;47573;43.832;5.974;2023-06-24T11:19:15;95447.00;;;31.34;54.86
61674;BME280;47573;43.832;5.974;2023-06-24T11:25:55;95445.38;;;31.33;54.99
61674;BME280;47573;43.832;5.974;2023-06-24T11:32:38;95440.09;;;31.36;55.59
61674;BME280;47573;43.832;5.974;2023-06-24T11:39:24;95437.84;;;31.38;56.10
61674;BME280;47573;43.832;5.974;2023-06-24T11:46:04;95438.38;;;31.45;55.65
61674;BME280;47573;43.832;5.974;2023-06-24T11:52:47;95426.16;;;31.51;55.94
61674;BME280;47573;43.832;5.974;2023-06-24T11:59:29;95421.69;;;31.55;55.57
61674;BME280;47573;43.832;5.974;2023-06-24T12:06:09;95419.44;;;31.57;56.41
61674;BME280;47573;43.832;5.974;2023-06-24T12:12:50;95423.84;;;31.58;56.01
61674;BME280;47573;43.832;5.974;2023-06-24T12:19:32;95413.31;;;31.60;56.48
61674;BME280;47573;43.832;5.974;2023-06-24T12:26:13;95411.47;;;31.56;56.71
61674;BME280;47573;43.832;5.974;2023-06-24T12:32:54;95404.97;;;31.65;56.36
61674;BME280;47573;43.832;5.974;2023-06-24T12:39:35;95406.84;;;31.70;56.61
61674;BME280;47573;43.832;5.974;2023-06-24T12:46:16;95406.59;;;31.66;57.02
61674;BME280;47573;43.832;5.974;2023-06-24T12:52:57;95395.19;;;31.73;57.02
61674;BME280;47573;43.832;5.974;2023-06-24T12:59:38;95395.28;;;31.68;57.47
61674;BME280;47573;43.832;5.974;2023-06-24T13:06:19;95389.94;;;31.77;57.46
61674;BME280;47573;43.832;5.974;2023-06-24T13:12:59;95389.94;;;31.77;57.62
61674;BME280;47573;43.832;5.974;2023-06-24T13:19:41;95387.06;;;31.82;58.04
61674;BME280;47573;43.832;5.974;2023-06-24T13:26:22;95384.84;;;31.84;58.30
61674;BME280;47573;43.832;5.974;2023-06-24T13:33:03;95378.72;;;31.87;58.28
61674;BME280;47573;43.832;5.974;2023-06-24T13:39:44;95380.09;;;31.89;58.40
61674;BME280;47573;43.832;5.974;2023-06-24T13:46:25;95384.13;;;31.97;58.24
61674;BME280;47573;43.832;5.974;2023-06-24T13:53:06;95376.50;;;31.89;59.18
61674;BME280;47573;43.832;5.974;2023-06-24T13:59:47;95374.72;;;31.98;59.02
61674;BME280;47573;43.832;5.974;2023-06-24T14:06:28;95374.72;;;31.98;59.67
61674;BME280;47573;43.832;5.974;2023-06-24T14:13:08;95374.97;;;32.01;59.25
61674;BME280;47573;43.832;5.974;2023-06-24T14:19:50;95364.72;;;32.02;59.59
61674;BME280;47573;43.832;5.974;2023-06-24T14:26:31;95369.59;;;32.10;59.50
61674;BME280;47573;43.832;5.974;2023-06-24T14:33:11;95362.91;;;32.11;59.66
61674;BME280;47573;43.832;5.974;2023-06-24T14:39:53;95360.69;;;32.13;60.02
61674;BME280;47573;43.832;5.974;2023-06-24T14:46:34;95354.56;;;32.16;59.86
61674;BME280;47573;43.832;5.974;2023-06-24T14:53:14;95361.41;;;32.18;59.56
61674;BME280;47573;43.832;5.974;2023-06-24T14:59:56;95343.94;;;32.23;60.27
61674;BME280;47573;43.832;5.974;2023-06-24T15:06:37;95350.50;;;32.27;59.90
61674;BME280;47573;43.832;5.974;2023-06-24T15:13:17;95344.44;;;32.25;59.83
61674;BME280;47573;43.832;5.974;2023-06-24T15:19:59;95344.97;;;32.27;59.94
61674;BME280;47573;43.832;5.974;2023-06-24T15:26:39;95345.81;;;32.27;60.50
61674;BME280;47573;43.832;5.974;2023-06-24T15:33:20;95348.88;;;32.26;60.61
61674;BME280;47573;43.832;5.974;2023-06-24T15:40:02;95338.41;;;32.23;60.73
61674;BME280;47573;43.832;5.974;2023-06-24T15:46:42;95341.09;;;32.28;60.96
61674;BME280;47573;43.832;5.974;2023-06-24T15:53:23;95330.88;;;32.28;60.99
61674;BME280;47573;43.832;5.974;2023-06-24T16:00:05;95327.19;;;32.33;61.34
61674;BME280;47573;43.832;5.974;2023-06-24T16:06:46;95324.72;;;32.31;61.23
61674;BME280;47573;43.832;5.974;2023-06-24T16:13:26;95327.81;;;32.30;61.75
61674;BME280;47573;43.832;5.974;2023-06-24T16:20:09;95331.09;;;32.32;61.88
61674;BME280;47573;43.832;5.974;2023-06-24T16:26:50;95325.56;;;32.32;61.99
61674;BME280;47573;43.832;5.974;2023-06-24T16:33:30;95321.06;;;32.36;62.54
61674;BME280;47573;43.832;5.974;2023-06-24T16:40:12;95331.78;;;32.56;48.88
61674;BME280;47573;43.832;5.974;2023-06-24T16:46:52;95337.75;;;32.63;46.44
61674;BME280;47573;43.832;5.974;2023-06-24T16:53:33;95331.59;;;32.66;45.15
61674;BME280;47573;43.832;5.974;2023-06-24T17:00:15;95328.75;;;32.71;43.88
61674;BME280;47573;43.832;5.974;2023-06-24T17:06:56;95335.56;;;32.60;43.76
61674;BME280;47573;43.832;5.974;2023-06-24T17:13:36;95337.31;;;32.56;43.33
61674;BME280;47573;43.832;5.974;2023-06-24T17:20:18;95339.56;;;32.54;42.60
61674;BME280;47573;43.832;5.974;2023-06-24T17:26:59;95346.00;;;32.49;43.14
61674;BME280;47573;43.832;5.974;2023-06-24T17:33:39;95350.63;;;32.54;43.02
61674;BME280;47573;43.832;5.974;2023-06-24T17:40:21;95349.19;;;32.57;42.33
61674;BME280;47573;43.832;5.974;2023-06-24T17:47:01;95349.13;;;32.43;43.24
61674;BME280;47573;43.832;5.974;2023-06-24T17:53:42;95346.91;;;32.45;43.22
61674;BME280;47573;43.832;5.974;2023-06-24T18:00:24;95354.16;;;32.41;43.49
61674;BME280;47573;43.832;5.974;2023-06-24T18:07:04;95346.00;;;32.31;43.94
61674;BME280;47573;43.832;5.974;2023-06-24T18:13:44;95353.94;;;32.19;44.92
61674;BME280;47573;43.832;5.974;2023-06-24T18:20:26;95350.91;;;32.20;44.70
61674;BME280;47573;43.832;5.974;2023-06-24T18:27:07;95361.28;;;32.10;45.29
61674;BME280;47573;43.832;5.974;2023-06-24T18:33:47;95359.13;;;32.07;45.45
61674;BME280;47573;43.832;5.974;2023-06-24T18:40:29;95367.34;;;31.93;44.90
61674;BME280;47573;43.832;5.974;2023-06-24T18:47:09;95368.88;;;31.81;45.49
61674;BME280;47573;43.832;5.974;2023-06-24T18:53:50;95378.78;;;31.82;45.07
61674;BME280;47573;43.832;5.974;2023-06-24T19:00:32;95370.66;;;31.71;45.55
61674;BME280;47573;43.832;5.974;2023-06-24T19:07:12;95382.91;;;31.65;45.95
61674;BME280;47573;43.832;5.974;2023-06-24T19:13:53;95393.03;;;31.51;45.63
61674;BME280;47573;43.832;5.974;2023-06-24T19:20:34;95395.84;;;31.46;46.00
61674;BME280;47573;43.832;5.974;2023-06-24T19:27:15;95396.75;;;31.37;46.03
61674;BME280;47573;43.832;5.974;2023-06-24T19:33:55;95407.53;;;31.33;45.48
61674;BME280;47573;43.832;5.974;2023-06-24T19:40:37;95405.44;;;31.25;45.66
61674;BME280;47573;43.832;5.974;2023-06-24T19:47:18;95407.53;;;31.33;46.06
61674;BME280;47573;43.832;5.974;2023-06-24T19:53:58;95412.78;;;31.11;46.51
61674;BME280;47573;43.832;5.974;2023-06-24T20:00:40;95415.53;;;31.11;46.66
61674;BME280;47573;43.832;5.974;2023-06-24T20:07:20;95425.22;;;31.09;45.88
61674;BME280;47573;43.832;5.974;2023-06-24T20:14:01;95439.81;;;31.09;46.26
61674;BME280;47573;43.832;5.974;2023-06-24T20:20:43;95432.03;;;31.16;46.68
61674;BME280;47573;43.832;5.974;2023-06-24T20:27:23;95440.25;;;31.21;47.19
61674;BME280;47573;43.832;5.974;2023-06-24T20:34:04;95435.91;;;31.15;47.41
61674;BME280;47573;43.832;5.974;2023-06-24T20:40:46;95429.84;;;31.13;47.37
61674;BME280;47573;43.832;5.974;2023-06-24T20:47:26;95432.09;;;31.11;47.75
61674;BME280;47573;43.832;5.974;2023-06-24T20:54:07;95440.88;;;31.13;47.58
61674;BME280;47573;43.832;5.974;2023-06-24T21:00:49;95446.75;;;31.07;47.85
61674;BME280;47573;43.832;5.974;2023-06-24T21:07:29;95445.69;;;31.03;48.36
61674;BME280;47573;43.832;5.974;2023-06-24T21:14:10;95455.31;;;31.05;48.05
61674;BME280;47573;43.832;5.974;2023-06-24T21:20:52;95445.91;;;31.06;48.29
61674;BME280;47573;43.832;5.974;2023-06-24T21:27:32;95454.25;;;31.01;47.91
61674;BME280;47573;43.832;5.974;2023-06-24T21:34:13;95449.31;;;30.98;48.09
61674;BME280;47573;43.832;5.974;2023-06-24T21:40:54;95454.81;;;30.98;47.96
61674;BME280;47573;43.832;5.974;2023-06-24T21:47:35;95454.97;;;31.12;50.12
61674;BME280;47573;43.832;5.974;2023-06-24T21:54:16;95460.16;;;31.18;50.92
61674;BME280;47573;43.832;5.974;2023-06-24T22:00:57;95462.31;;;31.21;51.65
61674;BME280;47573;43.832;5.974;2023-06-24T22:07:38;95459.22;;;31.28;52.31
61674;BME280;47573;43.832;5.974;2023-06-24T22:14:18;95467.78;;;31.26;53.43
61674;BME280;47573;43.832;5.974;2023-06-24T22:21:00;95469.41;;;31.27;53.29
61674;BME280;47573;43.832;5.974;2023-06-24T22:27:41;95464.16;;;31.31;54.03
61674;BME280;47573;43.832;5.974;2023-06-24T22:34:21;95462.72;;;31.33;54.27
61674;BME280;47573;43.832;5.974;2023-06-24T22:41:03;95463.56;;;31.34;54.09
61674;BME280;47573;43.832;5.974;2023-06-24T22:47:44;95458.28;;;31.37;54.50
61674;BME280;47573;43.832;5.974;2023-06-24T22:54:24;95457.16;;;31.38;55.44
61674;BME280;47573;43.832;5.974;2023-06-24T23:01:06;95446.13;;;31.38;55.23
61674;BME280;47573;43.832;5.974;2023-06-24T23:07:47;95446.97;;;31.39;55.89
61674;BME280;47573;43.832;5.974;2023-06-24T23:14:30;95448.34;;;31.41;55.84
61674;BME280;47573;43.832;5.974;2023-06-24T23:21:12;95442.84;;;31.41;56.18
61674;BME280;47573;43.832;5.974;2023-06-24T23:27:55;95448.34;;;31.41;56.43
61674;BME280;47573;43.832;5.974;2023-06-24T23:34:36;95441.69;;;31.42;56.76
61674;BME280;47573;43.832;5.974;2023-06-24T23:41:18;95450.28;;;31.41;56.99
61674;BME280;47573;43.832;5.974;2023-06-24T23:47:58;95447.75;;;31.44;56.60
61674;BME280;47573;43.832;5.974;2023-06-24T23:54:39;95441.69;;;31.42;57.08
